sensor_id;sensor_type;location;lat;lon;timestamp;P1;durP1;ratioP1;P2;durP2;ratioP2
29168;SDS011;16219;42.864;23.360;2023-08-21T00:01:02;52.95;;;48.50;;
29168;SDS011;16219;42.864;23.360;2023-08-21T00:03:30;61.03;;;55.45;;
29168;SDS011;16219;42.864;23.360;2023-08-21T00:05:59;97.00;;;87.10;;
29168;SDS011;16219;42.864;23.360;2023-08-21T00:08:28;126.72;;;113.55;;
29168;SDS011;16219;42.864;23.360;2023-08-21T00:10:55;117.85;;;106.28;;
29168;SDS011;16219;42.864;23.360;2023-08-21T00:13:22;140.93;;;126.00;;
29168;SDS011;16219;42.864;23.360;2023-08-21T00:15:50;204.15;;;184.40;;
29168;SDS011;16219;42.864;23.360;2023-08-21T00:18:17;167.35;;;150.63;;
29168;SDS011;16219;42.864;23.360;2023-08-21T00:20:44;225.82;;;201.77;;
29168;SDS011;16219;42.864;23.360;2023-08-21T00:23:13;235.52;;;212.15;;
29168;SDS011;16219;42.864;23.360;2023-08-21T00:25:42;448.90;;;405.70;;
29168;SDS011;16219;42.864;23.360;2023-08-21T00:28:12;408.92;;;369.08;;
29168;SDS011;16219;42.864;23.360;2023-08-21T00:30:39;509.30;;;458.63;;
29168;SDS011;16219;42.864;23.360;2023-08-21T00:33:07;421.30;;;379.00;;
29168;SDS011;16219;42.864;23.360;2023-08-21T00:35:34;480.85;;;432.48;;
29168;SDS011;16219;42.864;23.360;2023-08-21T00:38:01;448.17;;;402.40;;
29168;SDS011;16219;42.864;23.360;2023-08-21T00:40:31;376.00;;;338.02;;
29168;SDS011;16219;42.864;23.360;2023-08-21T00:42:59;373.95;;;336.60;;
29168;SDS011;16219;42.864;23.360;2023-08-21T00:45:26;441.35;;;395.90;;
29168;SDS011;16219;42.864;23.360;2023-08-21T00:47:54;360.98;;;324.25;;
29168;SDS011;16219;42.864;23.360;2023-08-21T00:50:21;374.35;;;338.17;;
29168;SDS011;16219;42.864;23.360;2023-08-21T00:52:48;426.33;;;382.50;;
29168;SDS011;16219;42.864;23.360;2023-08-21T00:55:16;569.97;;;512.35;;
29168;SDS011;16219;42.864;23.360;2023-08-21T00:57:45;499.65;;;449.20;;
29168;SDS011;16219;42.864;23.360;2023-08-21T01:00:13;440.73;;;398.45;;
29168;SDS011;16219;42.864;23.360;2023-08-21T01:02:40;457.95;;;412.83;;
29168;SDS011;16219;42.864;23.360;2023-08-21T01:05:07;436.73;;;393.25;;
29168;SDS011;16219;42.864;23.360;2023-08-21T01:07:42;434.23;;;390.90;;
29168;SDS011;16219;42.864;23.360;2023-08-21T01:10:19;535.42;;;482.25;;
29168;SDS011;16219;42.864;23.360;2023-08-21T01:12:55;518.15;;;465.85;;
29168;SDS011;16219;42.864;23.360;2023-08-21T01:15:27;618.80;;;557.88;;
29168;SDS011;16219;42.864;23.360;2023-08-21T01:17:56;582.63;;;525.97;;
29168;SDS011;16219;42.864;23.360;2023-08-21T01:20:25;556.15;;;504.30;;
29168;SDS011;16219;42.864;23.360;2023-08-21T01:22:52;521.08;;;467.83;;
29168;SDS011;16219;42.864;23.360;2023-08-21T01:25:22;485.58;;;439.00;;
29168;SDS011;16219;42.864;23.360;2023-08-21T01:27:50;443.05;;;400.17;;
29168;SDS011;16219;42.864;23.360;2023-08-21T01:30:18;505.00;;;455.65;;
29168;SDS011;16219;42.864;23.360;2023-08-21T01:32:48;422.17;;;379.30;;
29168;SDS011;16219;42.864;23.360;2023-08-21T01:35:27;406.40;;;366.88;;
29168;SDS011;16219;42.864;23.360;2023-08-21T01:37:56;428.35;;;387.77;;
29168;SDS011;16219;42.864;23.360;2023-08-21T01:40:27;450.27;;;407.40;;
29168;SDS011;16219;42.864;23.360;2023-08-21T01:42:58;468.17;;;421.52;;
29168;SDS011;16219;42.864;23.360;2023-08-21T01:45:26;484.35;;;437.92;;
29168;SDS011;16219;42.864;23.360;2023-08-21T01:47:53;385.65;;;347.50;;
29168;SDS011;16219;42.864;23.360;2023-08-21T01:50:21;440.40;;;397.27;;
29168;SDS011;16219;42.864;23.360;2023-08-21T01:52:48;401.45;;;361.48;;
29168;SDS011;16219;42.864;23.360;2023-08-21T01:55:15;484.48;;;437.58;;
29168;SDS011;16219;42.864;23.360;2023-08-21T01:57:43;461.95;;;417.05;;
29168;SDS011;16219;42.864;23.360;2023-08-21T02:00:11;503.38;;;454.17;;
29168;SDS011;16219;42.864;23.360;2023-08-21T02:02:43;562.37;;;508.57;;
29168;SDS011;16219;42.864;23.360;2023-08-21T02:05:10;577.75;;;522.25;;
29168;SDS011;16219;42.864;23.360;2023-08-21T02:07:38;611.53;;;553.28;;
29168;SDS011;16219;42.864;23.360;2023-08-21T02:10:05;591.10;;;534.35;;
29168;SDS011;16219;42.864;23.360;2023-08-21T02:12:33;595.33;;;538.78;;
29168;SDS011;16219;42.864;23.360;2023-08-21T02:15:02;598.28;;;542.58;;
29168;SDS011;16219;42.864;23.360;2023-08-21T02:17:31;585.00;;;527.33;;
29168;SDS011;16219;42.864;23.360;2023-08-21T02:19:59;604.78;;;546.28;;
29168;SDS011;16219;42.864;23.360;2023-08-21T02:22:26;615.47;;;556.83;;
29168;SDS011;16219;42.864;23.360;2023-08-21T02:24:54;580.00;;;522.60;;
29168;SDS011;16219;42.864;23.360;2023-08-21T02:27:22;656.28;;;594.72;;
29168;SDS011;16219;42.864;23.360;2023-08-21T02:29:49;579.65;;;524.17;;
29168;SDS011;16219;42.864;23.360;2023-08-21T02:32:18;546.95;;;491.42;;
29168;SDS011;16219;42.864;23.360;2023-08-21T02:34:45;630.35;;;571.33;;
29168;SDS011;16219;42.864;23.360;2023-08-21T02:37:14;613.38;;;553.58;;
29168;SDS011;16219;42.864;23.360;2023-08-21T02:39:41;651.03;;;587.00;;
29168;SDS011;16219;42.864;23.360;2023-08-21T02:42:08;607.38;;;550.03;;
29168;SDS011;16219;42.864;23.360;2023-08-21T02:44:36;626.05;;;567.00;;
29168;SDS011;16219;42.864;23.360;2023-08-21T02:47:03;659.28;;;598.25;;
29168;SDS011;16219;42.864;23.360;2023-08-21T02:49:31;611.55;;;553.33;;
29168;SDS011;16219;42.864;23.360;2023-08-21T02:51:59;648.97;;;586.47;;
29168;SDS011;16219;42.864;23.360;2023-08-21T02:54:26;639.47;;;579.10;;
29168;SDS011;16219;42.864;23.360;2023-08-21T02:56:53;603.95;;;545.63;;
29168;SDS011;16219;42.864;23.360;2023-08-21T02:59:21;621.50;;;560.90;;
29168;SDS011;16219;42.864;23.360;2023-08-21T03:01:48;635.05;;;574.03;;
29168;SDS011;16219;42.864;23.360;2023-08-21T03:04:15;604.45;;;546.15;;
29168;SDS011;16219;42.864;23.360;2023-08-21T03:06:44;638.53;;;579.42;;
29168;SDS011;16219;42.864;23.360;2023-08-21T03:09:11;661.85;;;598.50;;
29168;SDS011;16219;42.864;23.360;2023-08-21T03:11:38;621.10;;;563.60;;
29168;SDS011;16219;42.864;23.360;2023-08-21T03:14:05;631.72;;;572.72;;
29168;SDS011;16219;42.864;23.360;2023-08-21T03:16:32;621.92;;;562.10;;
29168;SDS011;16219;42.864;23.360;2023-08-21T03:19:00;612.13;;;552.58;;
29168;SDS011;16219;42.864;23.360;2023-08-21T03:21:29;633.03;;;571.10;;
29168;SDS011;16219;42.864;23.360;2023-08-21T03:23:59;625.58;;;563.92;;
29168;SDS011;16219;42.864;23.360;2023-08-21T03:26:27;669.20;;;605.58;;
29168;SDS011;16219;42.864;23.360;2023-08-21T03:28:54;647.90;;;585.72;;
29168;SDS011;16219;42.864;23.360;2023-08-21T03:31:22;622.08;;;563.33;;
29168;SDS011;16219;42.864;23.360;2023-08-21T03:33:49;658.40;;;593.80;;
29168;SDS011;16219;42.864;23.360;2023-08-21T03:36:18;683.50;;;618.72;;
29168;SDS011;16219;42.864;23.360;2023-08-21T03:38:56;631.47;;;571.83;;
29168;SDS011;16219;42.864;23.360;2023-08-21T03:41:26;640.42;;;577.65;;
29168;SDS011;16219;42.864;23.360;2023-08-21T03:43:53;675.92;;;613.13;;
29168;SDS011;16219;42.864;23.360;2023-08-21T03:46:21;657.60;;;595.33;;
29168;SDS011;16219;42.864;23.360;2023-08-21T03:48:48;669.17;;;605.28;;
29168;SDS011;16219;42.864;23.360;2023-08-21T03:51:16;602.50;;;543.63;;
29168;SDS011;16219;42.864;23.360;2023-08-21T03:53:43;628.95;;;567.60;;
29168;SDS011;16219;42.864;23.360;2023-08-21T03:56:11;637.45;;;576.17;;
29168;SDS011;16219;42.864;23.360;2023-08-21T03:58:39;663.90;;;600.78;;
29168;SDS011;16219;42.864;23.360;2023-08-21T04:01:07;687.45;;;620.40;;
29168;SDS011;16219;42.864;23.360;2023-08-21T04:03:34;601.65;;;544.00;;
29168;SDS011;16219;42.864;23.360;2023-08-21T04:06:01;601.90;;;545.63;;
29168;SDS011;16219;42.864;23.360;2023-08-21T04:08:29;628.80;;;571.15;;
29168;SDS011;16219;42.864;23.360;2023-08-21T04:10:56;617.83;;;558.95;;
29168;SDS011;16219;42.864;23.360;2023-08-21T04:13:25;595.25;;;540.00;;
29168;SDS011;16219;42.864;23.360;2023-08-21T04:15:54;609.55;;;552.72;;
29168;SDS011;16219;42.864;23.360;2023-08-21T04:18:22;612.13;;;555.95;;
29168;SDS011;16219;42.864;23.360;2023-08-21T04:20:50;579.95;;;523.97;;
29168;SDS011;16219;42.864;23.360;2023-08-21T04:23:17;628.63;;;569.65;;
29168;SDS011;16219;42.864;23.360;2023-08-21T04:25:44;635.88;;;575.60;;
29168;SDS011;16219;42.864;23.360;2023-08-21T04:28:11;609.25;;;551.10;;
29168;SDS011;16219;42.864;23.360;2023-08-21T04:30:39;598.60;;;541.85;;
29168;SDS011;16219;42.864;23.360;2023-08-21T04:33:09;606.28;;;548.08;;
29168;SDS011;16219;42.864;23.360;2023-08-21T04:35:37;635.67;;;573.97;;
29168;SDS011;16219;42.864;23.360;2023-08-21T04:38:05;605.50;;;546.05;;
29168;SDS011;16219;42.864;23.360;2023-08-21T04:40:33;326.35;;;293.38;;
29168;SDS011;16219;42.864;23.360;2023-08-21T04:43:01;69.40;;;61.97;;
29168;SDS011;16219;42.864;23.360;2023-08-21T04:45:28;42.95;;;38.97;;
29168;SDS011;16219;42.864;23.360;2023-08-21T04:47:56;60.78;;;54.80;;
29168;SDS011;16219;42.864;23.360;2023-08-21T04:50:24;31.27;;;28.40;;
29168;SDS011;16219;42.864;23.360;2023-08-21T04:52:52;50.58;;;45.40;;
29168;SDS011;16219;42.864;23.360;2023-08-21T04:55:20;80.03;;;72.55;;
29168;SDS011;16219;42.864;23.360;2023-08-21T04:57:47;29.23;;;26.30;;
29168;SDS011;16219;42.864;23.360;2023-08-21T05:00:15;6.03;;;5.55;;
29168;SDS011;16219;42.864;23.360;2023-08-21T05:02:44;3.42;;;2.67;;
29168;SDS011;16219;42.864;23.360;2023-08-21T05:05:11;1.95;;;1.77;;
29168;SDS011;16219;42.864;23.360;2023-08-21T05:07:40;4.25;;;3.85;;
29168;SDS011;16219;42.864;23.360;2023-08-21T05:10:08;2.20;;;1.98;;
29168;SDS011;16219;42.864;23.360;2023-08-21T05:12:37;3.22;;;2.95;;
29168;SDS011;16219;42.864;23.360;2023-08-21T05:15:05;6.05;;;5.60;;
29168;SDS011;16219;42.864;23.360;2023-08-21T05:17:33;8.07;;;7.22;;
29168;SDS011;16219;42.864;23.360;2023-08-21T05:20:00;2.85;;;2.42;;
29168;SDS011;16219;42.864;23.360;2023-08-21T05:22:29;12.23;;;10.23;;
29168;SDS011;16219;42.864;23.360;2023-08-21T05:24:58;7.57;;;6.53;;
29168;SDS011;16219;42.864;23.360;2023-08-21T05:30:14;16.38;;;13.38;;
29168;SDS011;16219;42.864;23.360;2023-08-21T05:32:41;3.58;;;3.28;;
29168;SDS011;16219;42.864;23.360;2023-08-21T05:35:09;7.82;;;7.28;;
29168;SDS011;16219;42.864;23.360;2023-08-21T05:37:36;10.95;;;9.93;;
29168;SDS011;16219;42.864;23.360;2023-08-21T05:40:07;12.57;;;11.68;;
29168;SDS011;16219;42.864;23.360;2023-08-21T05:42:34;7.88;;;6.45;;
29168;SDS011;16219;42.864;23.360;2023-08-21T05:45:02;6.60;;;5.82;;
29168;SDS011;16219;42.864;23.360;2023-08-21T05:47:31;5.47;;;5.05;;
29168;SDS011;16219;42.864;23.360;2023-08-21T05:49:59;4.00;;;3.08;;
29168;SDS011;16219;42.864;23.360;2023-08-21T05:52:26;2.83;;;2.50;;
29168;SDS011;16219;42.864;23.360;2023-08-21T05:54:52;2.45;;;2.25;;
29168;SDS011;16219;42.864;23.360;2023-08-21T05:57:21;2.10;;;1.90;;
29168;SDS011;16219;42.864;23.360;2023-08-21T05:59:50;2.63;;;2.33;;
29168;SDS011;16219;42.864;23.360;2023-08-21T06:02:17;1.92;;;1.83;;
29168;SDS011;16219;42.864;23.360;2023-08-21T06:04:45;2.60;;;1.80;;
29168;SDS011;16219;42.864;23.360;2023-08-21T06:07:12;2.28;;;1.67;;
29168;SDS011;16219;42.864;23.360;2023-08-21T06:09:39;4.10;;;1.60;;
29168;SDS011;16219;42.864;23.360;2023-08-21T06:12:06;1.58;;;1.30;;
29168;SDS011;16219;42.864;23.360;2023-08-21T06:14:39;2.22;;;1.48;;
29168;SDS011;16219;42.864;23.360;2023-08-21T06:17:08;3.92;;;1.98;;
29168;SDS011;16219;42.864;23.360;2023-08-21T06:19:36;3.00;;;2.22;;
29168;SDS011;16219;42.864;23.360;2023-08-21T06:22:04;1.73;;;1.50;;
29168;SDS011;16219;42.864;23.360;2023-08-21T06:24:32;2.63;;;1.80;;
29168;SDS011;16219;42.864;23.360;2023-08-21T06:27:02;2.33;;;1.83;;
29168;SDS011;16219;42.864;23.360;2023-08-21T06:29:29;3.03;;;1.70;;
29168;SDS011;16219;42.864;23.360;2023-08-21T06:31:58;2.30;;;1.85;;
29168;SDS011;16219;42.864;23.360;2023-08-21T06:34:25;1.63;;;1.52;;
29168;SDS011;16219;42.864;23.360;2023-08-21T06:36:53;1.88;;;1.60;;
29168;SDS011;16219;42.864;23.360;2023-08-21T06:39:20;2.25;;;1.45;;
29168;SDS011;16219;42.864;23.360;2023-08-21T06:41:49;3.70;;;1.38;;
29168;SDS011;16219;42.864;23.360;2023-08-21T06:44:18;1.38;;;1.25;;
29168;SDS011;16219;42.864;23.360;2023-08-21T06:46:45;1.55;;;1.42;;
29168;SDS011;16219;42.864;23.360;2023-08-21T06:49:14;1.58;;;1.48;;
29168;SDS011;16219;42.864;23.360;2023-08-21T06:51:42;2.60;;;1.40;;
29168;SDS011;16219;42.864;23.360;2023-08-21T06:54:09;2.38;;;1.77;;
29168;SDS011;16219;42.864;23.360;2023-08-21T06:56:36;2.83;;;1.70;;
29168;SDS011;16219;42.864;23.360;2023-08-21T06:59:03;1.17;;;1.08;;
29168;SDS011;16219;42.864;23.360;2023-08-21T07:01:31;2.33;;;1.52;;
29168;SDS011;16219;42.864;23.360;2023-08-21T07:03:58;1.75;;;1.17;;
29168;SDS011;16219;42.864;23.360;2023-08-21T07:06:28;1.70;;;1.60;;
29168;SDS011;16219;42.864;23.360;2023-08-21T07:08:56;1.38;;;1.20;;
29168;SDS011;16219;42.864;23.360;2023-08-21T07:11:23;1.35;;;1.25;;
29168;SDS011;16219;42.864;23.360;2023-08-21T07:13:51;1.95;;;1.50;;
29168;SDS011;16219;42.864;23.360;2023-08-21T07:16:18;0.82;;;0.82;;
29168;SDS011;16219;42.864;23.360;2023-08-21T07:18:45;1.35;;;1.17;;
29168;SDS011;16219;42.864;23.360;2023-08-21T07:21:13;3.58;;;1.27;;
29168;SDS011;16219;42.864;23.360;2023-08-21T07:23:50;1.50;;;1.33;;
29168;SDS011;16219;42.864;23.360;2023-08-21T07:26:26;2.65;;;1.33;;
29168;SDS011;16219;42.864;23.360;2023-08-21T07:28:58;1.30;;;1.20;;
29168;SDS011;16219;42.864;23.360;2023-08-21T07:31:43;2.10;;;1.17;;
29168;SDS011;16219;42.864;23.360;2023-08-21T07:34:11;1.05;;;0.95;;
29168;SDS011;16219;42.864;23.360;2023-08-21T07:36:38;2.00;;;1.65;;
29168;SDS011;16219;42.864;23.360;2023-08-21T07:39:09;11.18;;;1.30;;
29168;SDS011;16219;42.864;23.360;2023-08-21T07:41:37;1.90;;;1.20;;
29168;SDS011;16219;42.864;23.360;2023-08-21T07:44:05;1.50;;;1.35;;
29168;SDS011;16219;42.864;23.360;2023-08-21T07:46:35;2.90;;;1.55;;
29168;SDS011;16219;42.864;23.360;2023-08-21T07:49:14;2.15;;;1.40;;
29168;SDS011;16219;42.864;23.360;2023-08-21T07:52:10;1.40;;;1.30;;
29168;SDS011;16219;42.864;23.360;2023-08-21T07:54:39;1.23;;;1.13;;
29168;SDS011;16219;42.864;23.360;2023-08-21T07:57:09;2.22;;;1.80;;
29168;SDS011;16219;42.864;23.360;2023-08-21T07:59:36;2.05;;;1.45;;
29168;SDS011;16219;42.864;23.360;2023-08-21T08:02:03;4.53;;;2.28;;
29168;SDS011;16219;42.864;23.360;2023-08-21T08:04:31;1.55;;;1.45;;
29168;SDS011;16219;42.864;23.360;2023-08-21T08:06:58;1.25;;;1.15;;
29168;SDS011;16219;42.864;23.360;2023-08-21T08:09:28;1.85;;;1.15;;
29168;SDS011;16219;42.864;23.360;2023-08-21T08:11:57;1.30;;;1.20;;
29168;SDS011;16219;42.864;23.360;2023-08-21T08:14:24;1.55;;;1.45;;
29168;SDS011;16219;42.864;23.360;2023-08-21T08:16:52;2.67;;;2.05;;
29168;SDS011;16219;42.864;23.360;2023-08-21T08:19:20;2.28;;;1.42;;
29168;SDS011;16219;42.864;23.360;2023-08-21T08:21:47;1.45;;;1.35;;
29168;SDS011;16219;42.864;23.360;2023-08-21T08:24:15;4.07;;;1.85;;
29168;SDS011;16219;42.864;23.360;2023-08-21T08:26:47;5.20;;;1.77;;
29168;SDS011;16219;42.864;23.360;2023-08-21T08:29:17;1.92;;;1.20;;
29168;SDS011;16219;42.864;23.360;2023-08-21T08:31:44;3.47;;;2.10;;
29168;SDS011;16219;42.864;23.360;2023-08-21T08:34:12;2.92;;;1.40;;
29168;SDS011;16219;42.864;23.360;2023-08-21T08:36:43;2.30;;;1.63;;
29168;SDS011;16219;42.864;23.360;2023-08-21T08:39:11;1.42;;;1.02;;
29168;SDS011;16219;42.864;23.360;2023-08-21T08:41:48;1.65;;;1.27;;
29168;SDS011;16219;42.864;23.360;2023-08-21T08:44:45;3.67;;;1.50;;
29168;SDS011;16219;42.864;23.360;2023-08-21T08:47:19;1.48;;;1.38;;
29168;SDS011;16219;42.864;23.360;2023-08-21T08:49:48;1.10;;;1.10;;
29168;SDS011;16219;42.864;23.360;2023-08-21T08:52:18;2.83;;;1.73;;
29168;SDS011;16219;42.864;23.360;2023-08-21T08:54:47;1.15;;;1.00;;
29168;SDS011;16219;42.864;23.360;2023-08-21T08:57:16;2.53;;;2.00;;
29168;SDS011;16219;42.864;23.360;2023-08-21T08:59:44;2.30;;;1.58;;
29168;SDS011;16219;42.864;23.360;2023-08-21T09:02:11;2.85;;;1.45;;
29168;SDS011;16219;42.864;23.360;2023-08-21T09:04:38;1.75;;;1.42;;
29168;SDS011;16219;42.864;23.360;2023-08-21T09:07:06;4.13;;;1.70;;
29168;SDS011;16219;42.864;23.360;2023-08-21T09:09:37;1.55;;;1.27;;
29168;SDS011;16219;42.864;23.360;2023-08-21T09:12:08;2.20;;;1.50;;
29168;SDS011;16219;42.864;23.360;2023-08-21T09:14:37;3.95;;;1.52;;
29168;SDS011;16219;42.864;23.360;2023-08-21T09:17:06;2.47;;;1.30;;
29168;SDS011;16219;42.864;23.360;2023-08-21T09:19:34;2.95;;;1.48;;
29168;SDS011;16219;42.864;23.360;2023-08-21T09:22:07;2.05;;;1.67;;
29168;SDS011;16219;42.864;23.360;2023-08-21T09:24:35;2.25;;;1.13;;
29168;SDS011;16219;42.864;23.360;2023-08-21T09:27:03;3.25;;;1.77;;
29168;SDS011;16219;42.864;23.360;2023-08-21T09:29:37;2.08;;;1.23;;
29168;SDS011;16219;42.864;23.360;2023-08-21T09:32:07;3.30;;;2.03;;
29168;SDS011;16219;42.864;23.360;2023-08-21T09:34:34;1.17;;;1.08;;
29168;SDS011;16219;42.864;23.360;2023-08-21T09:37:04;2.70;;;1.17;;
29168;SDS011;16219;42.864;23.360;2023-08-21T09:39:33;1.33;;;1.00;;
29168;SDS011;16219;42.864;23.360;2023-08-21T09:42:01;1.42;;;1.33;;
29168;SDS011;16219;42.864;23.360;2023-08-21T09:44:36;1.35;;;1.25;;
29168;SDS011;16219;42.864;23.360;2023-08-21T09:50:59;2.15;;;1.42;;
29168;SDS011;16219;42.864;23.360;2023-08-21T09:53:30;1.73;;;1.52;;
29168;SDS011;16219;42.864;23.360;2023-08-21T09:56:07;1.17;;;1.08;;
29168;SDS011;16219;42.864;23.360;2023-08-21T09:58:58;1.88;;;1.30;;
29168;SDS011;16219;42.864;23.360;2023-08-21T10:01:32;1.40;;;1.00;;
29168;SDS011;16219;42.864;23.360;2023-08-21T10:04:03;1.45;;;0.88;;
29168;SDS011;16219;42.864;23.360;2023-08-21T10:06:35;1.27;;;1.17;;
29168;SDS011;16219;42.864;23.360;2023-08-21T10:09:02;0.88;;;0.88;;
29168;SDS011;16219;42.864;23.360;2023-08-21T10:11:29;1.27;;;1.17;;
29168;SDS011;16219;42.864;23.360;2023-08-21T10:13:57;1.67;;;0.80;;
29168;SDS011;16219;42.864;23.360;2023-08-21T10:16:24;1.02;;;0.70;;
29168;SDS011;16219;42.864;23.360;2023-08-21T10:18:52;1.05;;;0.95;;
29168;SDS011;16219;42.864;23.360;2023-08-21T10:21:22;1.42;;;1.13;;
29168;SDS011;16219;42.864;23.360;2023-08-21T10:23:54;1.73;;;1.48;;
29168;SDS011;16219;42.864;23.360;2023-08-21T10:26:22;1.30;;;1.23;;
29168;SDS011;16219;42.864;23.360;2023-08-21T10:28:52;0.80;;;0.80;;
29168;SDS011;16219;42.864;23.360;2023-08-21T10:31:28;1.52;;;1.17;;
29168;SDS011;16219;42.864;23.360;2023-08-21T10:34:02;6.65;;;1.55;;
29168;SDS011;16219;42.864;23.360;2023-08-21T10:39:36;3.03;;;1.20;;
29168;SDS011;16219;42.864;23.360;2023-08-21T10:42:21;3.42;;;1.98;;
29168;SDS011;16219;42.864;23.360;2023-08-21T10:45:10;1.00;;;0.93;;
29168;SDS011;16219;42.864;23.360;2023-08-21T10:47:37;0.90;;;0.90;;
29168;SDS011;16219;42.864;23.360;2023-08-21T10:50:06;1.30;;;1.20;;
29168;SDS011;16219;42.864;23.360;2023-08-21T10:52:35;1.25;;;1.15;;
29168;SDS011;16219;42.864;23.360;2023-08-21T10:55:07;1.02;;;1.00;;
29168;SDS011;16219;42.864;23.360;2023-08-21T10:57:35;1.25;;;1.15;;
29168;SDS011;16219;42.864;23.360;2023-08-21T11:00:03;0.82;;;0.68;;
29168;SDS011;16219;42.864;23.360;2023-08-21T11:02:35;1.23;;;1.10;;
29168;SDS011;16219;42.864;23.360;2023-08-21T11:05:03;2.38;;;1.33;;
29168;SDS011;16219;42.864;23.360;2023-08-21T11:07:36;0.90;;;0.90;;
29168;SDS011;16219;42.864;23.360;2023-08-21T11:10:05;0.80;;;0.80;;
29168;SDS011;16219;42.864;23.360;2023-08-21T11:12:49;1.63;;;1.52;;
29168;SDS011;16219;42.864;23.360;2023-08-21T11:15:17;1.17;;;1.02;;
29168;SDS011;16219;42.864;23.360;2023-08-21T11:17:50;1.90;;;1.75;;
29168;SDS011;16219;42.864;23.360;2023-08-21T11:20:18;1.83;;;1.35;;
29168;SDS011;16219;42.864;23.360;2023-08-21T11:22:45;1.98;;;1.60;;
29168;SDS011;16219;42.864;23.360;2023-08-21T11:25:15;3.90;;;1.60;;
29168;SDS011;16219;42.864;23.360;2023-08-21T11:27:43;1.75;;;1.48;;
29168;SDS011;16219;42.864;23.360;2023-08-21T11:30:11;1.30;;;1.10;;
29168;SDS011;16219;42.864;23.360;2023-08-21T11:32:39;0.95;;;0.80;;
29168;SDS011;16219;42.864;23.360;2023-08-21T11:35:06;1.23;;;0.95;;
29168;SDS011;16219;42.864;23.360;2023-08-21T11:37:34;1.65;;;1.52;;
29168;SDS011;16219;42.864;23.360;2023-08-21T11:40:11;1.02;;;0.98;;
29168;SDS011;16219;42.864;23.360;2023-08-21T11:42:41;1.27;;;0.95;;
29168;SDS011;16219;42.864;23.360;2023-08-21T11:45:09;1.20;;;1.10;;
29168;SDS011;16219;42.864;23.360;2023-08-21T11:47:37;0.77;;;0.77;;
29168;SDS011;16219;42.864;23.360;2023-08-21T11:50:07;1.58;;;0.88;;
29168;SDS011;16219;42.864;23.360;2023-08-21T11:52:36;1.10;;;0.93;;
29168;SDS011;16219;42.864;23.360;2023-08-21T11:55:07;1.38;;;1.27;;
29168;SDS011;16219;42.864;23.360;2023-08-21T11:57:46;2.07;;;1.40;;
29168;SDS011;16219;42.864;23.360;2023-08-21T12:00:15;0.88;;;0.88;;
29168;SDS011;16219;42.864;23.360;2023-08-21T12:02:49;1.23;;;1.08;;
29168;SDS011;16219;42.864;23.360;2023-08-21T12:05:21;5.93;;;1.65;;
29168;SDS011;16219;42.864;23.360;2023-08-21T12:07:48;0.98;;;0.98;;
29168;SDS011;16219;42.864;23.360;2023-08-21T12:10:21;1.33;;;1.10;;
29168;SDS011;16219;42.864;23.360;2023-08-21T12:12:55;1.40;;;0.85;;
29168;SDS011;16219;42.864;23.360;2023-08-21T12:15:23;2.55;;;1.38;;
29168;SDS011;16219;42.864;23.360;2023-08-21T12:17:50;1.73;;;1.23;;
29168;SDS011;16219;42.864;23.360;2023-08-21T12:20:17;3.72;;;1.40;;
29168;SDS011;16219;42.864;23.360;2023-08-21T12:22:44;7.68;;;1.63;;
29168;SDS011;16219;42.864;23.360;2023-08-21T12:25:12;2.35;;;1.42;;
29168;SDS011;16219;42.864;23.360;2023-08-21T12:27:41;1.10;;;1.08;;
29168;SDS011;16219;42.864;23.360;2023-08-21T12:30:13;5.03;;;2.58;;
29168;SDS011;16219;42.864;23.360;2023-08-21T12:32:43;1.15;;;1.05;;
29168;SDS011;16219;42.864;23.360;2023-08-21T12:35:12;1.25;;;1.10;;
29168;SDS011;16219;42.864;23.360;2023-08-21T12:37:42;1.10;;;0.95;;
29168;SDS011;16219;42.864;23.360;2023-08-21T12:40:15;0.90;;;0.85;;
29168;SDS011;16219;42.864;23.360;2023-08-21T12:42:44;1.70;;;0.73;;
29168;SDS011;16219;42.864;23.360;2023-08-21T12:45:13;1.75;;;1.20;;
29168;SDS011;16219;42.864;23.360;2023-08-21T12:47:46;7.93;;;1.30;;
29168;SDS011;16219;42.864;23.360;2023-08-21T12:50:14;0.80;;;0.80;;
29168;SDS011;16219;42.864;23.360;2023-08-21T12:52:42;0.98;;;0.98;;
29168;SDS011;16219;42.864;23.360;2023-08-21T12:55:10;1.10;;;0.90;;
29168;SDS011;16219;42.864;23.360;2023-08-21T12:57:39;1.77;;;1.10;;
29168;SDS011;16219;42.864;23.360;2023-08-21T13:00:15;1.33;;;0.98;;
29168;SDS011;16219;42.864;23.360;2023-08-21T13:02:46;0.82;;;0.80;;
29168;SDS011;16219;42.864;23.360;2023-08-21T13:05:16;1.40;;;0.82;;
29168;SDS011;16219;42.864;23.360;2023-08-21T13:07:45;2.03;;;1.58;;
29168;SDS011;16219;42.864;23.360;2023-08-21T13:10:13;2.15;;;1.48;;
29168;SDS011;16219;42.864;23.360;2023-08-21T13:12:42;1.98;;;1.25;;
29168;SDS011;16219;42.864;23.360;2023-08-21T13:15:14;2.30;;;1.23;;
29168;SDS011;16219;42.864;23.360;2023-08-21T13:17:49;1.67;;;0.85;;
29168;SDS011;16219;42.864;23.360;2023-08-21T13:20:30;1.45;;;1.00;;
29168;SDS011;16219;42.864;23.360;2023-08-21T13:23:33;12.82;;;1.52;;
29168;SDS011;16219;42.864;23.360;2023-08-21T13:26:03;2.00;;;1.25;;
29168;SDS011;16219;42.864;23.360;2023-08-21T13:28:33;1.25;;;1.13;;
29168;SDS011;16219;42.864;23.360;2023-08-21T13:31:03;1.05;;;0.95;;
29168;SDS011;16219;42.864;23.360;2023-08-21T13:33:32;1.40;;;1.30;;
29168;SDS011;16219;42.864;23.360;2023-08-21T13:36:13;1.10;;;1.00;;
29168;SDS011;16219;42.864;23.360;2023-08-21T13:38:47;1.35;;;1.20;;
29168;SDS011;16219;42.864;23.360;2023-08-21T13:41:17;1.27;;;1.17;;
29168;SDS011;16219;42.864;23.360;2023-08-21T13:43:47;2.10;;;1.03;;
29168;SDS011;16219;42.864;23.360;2023-08-21T13:46:16;0.80;;;0.80;;
29168;SDS011;16219;42.864;23.360;2023-08-21T13:48:45;1.90;;;1.17;;
29168;SDS011;16219;42.864;23.360;2023-08-21T13:51:12;1.05;;;0.95;;
29168;SDS011;16219;42.864;23.360;2023-08-21T13:53:39;1.27;;;1.15;;
29168;SDS011;16219;42.864;23.360;2023-08-21T13:56:07;1.48;;;0.77;;
29168;SDS011;16219;42.864;23.360;2023-08-21T13:58:37;1.63;;;1.10;;
29168;SDS011;16219;42.864;23.360;2023-08-21T14:01:05;0.93;;;0.93;;
29168;SDS011;16219;42.864;23.360;2023-08-21T14:03:36;1.02;;;1.02;;
29168;SDS011;16219;42.864;23.360;2023-08-21T14:06:04;3.72;;;2.10;;
29168;SDS011;16219;42.864;23.360;2023-08-21T14:08:37;2.50;;;1.33;;
29168;SDS011;16219;42.864;23.360;2023-08-21T14:11:04;2.05;;;1.52;;
29168;SDS011;16219;42.864;23.360;2023-08-21T14:13:32;1.80;;;1.30;;
29168;SDS011;16219;42.864;23.360;2023-08-21T14:15:59;1.60;;;0.90;;
29168;SDS011;16219;42.864;23.360;2023-08-21T14:18:28;1.95;;;1.67;;
29168;SDS011;16219;42.864;23.360;2023-08-21T14:20:58;2.58;;;1.73;;
29168;SDS011;16219;42.864;23.360;2023-08-21T14:23:26;3.22;;;0.98;;
29168;SDS011;16219;42.864;23.360;2023-08-21T14:25:57;7.13;;;1.30;;
29168;SDS011;16219;42.864;23.360;2023-08-21T14:28:26;1.88;;;1.17;;
29168;SDS011;16219;42.864;23.360;2023-08-21T14:30:56;1.52;;;1.25;;
29168;SDS011;16219;42.864;23.360;2023-08-21T14:33:25;1.65;;;1.40;;
29168;SDS011;16219;42.864;23.360;2023-08-21T14:35:52;1.25;;;1.10;;
29168;SDS011;16219;42.864;23.360;2023-08-21T14:38:23;2.22;;;1.20;;